Stations météo

réclame
Mon MeteoGroup
Petisträsk, Suède (2282): Température de l'air & dewpoint: 11.07.2018 13:00:00 - 17.07.2018 13:00:00 (CEST)Petisträsk, Suède (2282): Vitesse du vent & gusts: 11.07.2018 13:00:00 - 17.07.2018 13:00:00 (CEST)Petisträsk, Suède (2282): Direction du vent: 11.07.2018 13:00:00 - 17.07.2018 13:00:00 (CEST)Petisträsk, Suède (2282): visibility: 11.07.2018 13:00:00 - 17.07.2018 13:00:00 (CEST)Petisträsk, Suède (2282): Quantités de précipitations: 11.07.2018 13:00:00 - 17.07.2018 13:00:00 (CEST)
Date & Time tt [°C] td [°C] ff [km/h] ff [knt] fx [km/h] fx [knt] dd vv [km] rr [mm]
17.07.2018 13:00:00 29,3 13,1 4 2 14 8 ENE 42 0,0
17.07.2018 12:00:00 28,8 12,7 5 3 11 6 E 26 0,0
17.07.2018 11:00:00 27,8 12,2 5 3 10 5 ENE 38 0,0
17.07.2018 10:00:00 27,1 13,1 0 0 6 3 N 32 0,0
17.07.2018 09:00:00 25,9 14,4 0 0 4 2 N 26 0,0
17.07.2018 08:00:00 23,8 14,8 2 1 5 3 ESE 31 0,0
17.07.2018 07:00:00 21,7 15,3 0 0 4 2 N 30 0,0
17.07.2018 06:00:00 18,7 15,0 0 0 5 3 N 39 0,0
17.07.2018 05:00:00 15,6 14,3 0 0 2 1 N 41 0,0
17.07.2018 04:00:00 14,2 13,9 0 0 4 2 N 34 0,0
17.07.2018 03:00:00 14,5 13,9 0 0 1 1 N 40 0,0
17.07.2018 02:00:00 15,7 14,4 0 0 5 3 N 45 0,0
17.07.2018 01:00:00 17,4 14,5 3 1 5 3 E 50 0,0
17.07.2018 00:00:00 18,4 14,5 3 1 6 3 E 50 0,0
16.07.2018 23:00:00 19,6 14,0 3 2 6 3 ENE 31 0,0
16.07.2018 22:00:00 22,8 13,6 3 1 15 8 E 42 0,0
16.07.2018 21:00:00 24,6 14,4 5 3 12 6 ESE 50 0,0
16.07.2018 20:00:00 25,8 12,6 0 0 6 3 N 50 0,0
16.07.2018 19:00:00 26,6 13,7 0 0 6 3 N 50 0,0
16.07.2018 18:00:00 26,5 12,2 0 0 7 4 N 50 0,0
16.07.2018 17:00:00 27,7 13,3 0 0 7 4 N 50 0,0
16.07.2018 16:00:00 26,8 15,2 3 2 11 6 W 38 0,0
16.07.2018 15:00:00 27,5 13,4 2 1 14 8 W 31 0,0
16.07.2018 14:00:00 26,5 13,9 3 2 15 8 W 42 0,0
16.07.2018 13:00:00 25,9 14,7 4 2 11 6 WNW 37 0,0
16.07.2018 12:00:00 25,2 14,6 0 0 7 4 N 41 0,0
16.07.2018 11:00:00 24,0 13,5 0 0 15 8 N 37 0,0
16.07.2018 10:00:00 22,3 13,9 3 2 10 5 W 43 0,0
16.07.2018 09:00:00 21,6 11,9 3 2 10 6 WNW 38 0,0
16.07.2018 08:00:00 20,5 12,5 3 1 14 8 WNW 40 0,0
16.07.2018 07:00:00 18,6 13,0 0 0 7 4 N 35 0,0
16.07.2018 06:00:00 15,7 11,7 3 2 6 3 NW 42 0,0
16.07.2018 05:00:00 13,6 11,3 3 2 7 4 WNW 50 0,0
16.07.2018 04:00:00 12,1 11,2 3 1 5 3 WNW 50 0,0
16.07.2018 03:00:00 12,2 11,3 0 0 3 2 N 50 0,0
16.07.2018 02:00:00 13,1 11,3 3 2 4 2 WNW 50 0,0
16.07.2018 01:00:00 13,4 11,6 3 1 4 2 W 50 0,0
16.07.2018 00:00:00 14,0 12,2 0 0 3 2 N 47 0,0
15.07.2018 23:00:00 15,6 12,0 2 1 5 3 WNW 32 0,0
15.07.2018 22:00:00 17,7 12,6 0 0 5 3 N 25 0,0
15.07.2018 21:00:00 21,1 11,4 3 2 13 7 WNW 50 0,0
15.07.2018 20:00:00 22,4 10,2 7 4 19 11 NW 50 0,0
15.07.2018 19:00:00 23,0 10,4 8 4 22 12 WNW 50 0,0
15.07.2018 18:00:00 23,8 10,5 10 5 21 11 NW 48 0,0
15.07.2018 17:00:00 24,0 13,2 7 4 19 11 WNW 46 0,0
15.07.2018 16:00:00 24,2 14,6 6 3 20 11 WNW 50 0,0
15.07.2018 15:00:00 24,9 14,4 7 4 18 10 WNW 42 0,0
15.07.2018 14:00:00 24,5 13,7 6 3 11 6 W 44 0,0
15.07.2018 13:00:00 25,5 13,7 3 2 11 6 W 45 0,0
15.07.2018 12:00:00 25,0 14,5 4 2 7 4 W 39 0,0
15.07.2018 11:00:00 25,1 14,6 0 0 9 5 N 37 0,0
15.07.2018 10:00:00 24,5 14,6 0 0 5 3 N 36 0,0
15.07.2018 09:00:00 22,9 13,7 0 0 5 3 N 47 0,0
15.07.2018 08:00:00 22,8 14,1 0 0 8 4 N 37 0,0
15.07.2018 07:00:00 19,9 13,8 0 0 3 2 N 45 0,0
15.07.2018 06:00:00 16,4 14,6 2 1 5 3 WNW 33 0,0
15.07.2018 05:00:00 14,3 13,8 0 0 4 2 N 35 0,0
15.07.2018 04:00:00 11,6 11,3 0 0 4 2 N 15 0,0
15.07.2018 03:00:00 12,4 12,2 0 0 4 2 N 33 0,0
15.07.2018 02:00:00 12,2 11,7 0 0 2 1 N 21 0,0
15.07.2018 01:00:00 13,1 12,0 0 0 1 0 N 42 0,0
15.07.2018 00:00:00 14,4 12,8 0 0 1 0 N 36 0,0
14.07.2018 23:00:00 15,7 13,0 0 0 1 1 N 35 0,0
14.07.2018 22:00:00 18,9 12,9 0 0 1 1 N 26 0,0
14.07.2018 21:00:00 21,5 13,1 0 0 7 4 N 46 0,0
14.07.2018 20:00:00 22,4 10,8 2 1 6 4 W 45 0,0
14.07.2018 19:00:00 23,9 10,9 4 2 14 8 W 50 0,0
14.07.2018 18:00:00 24,5 10,0 4 2 13 7 W 50 0,0
14.07.2018 17:00:00 24,9 10,7 3 1 9 5 NW 48 0,0
14.07.2018 16:00:00 25,6 12,4 3 2 8 5 WNW 41 0,0
14.07.2018 15:00:00 25,8 11,2 3 1 13 7 S 35 0,0
14.07.2018 14:00:00 24,5 10,4 2 1 6 4 WNW 44 0,0
14.07.2018 13:00:00 25,3 13,5 0 0 5 3 N 29 0,0
14.07.2018 12:00:00 23,8 12,8 2 1 6 3 W 32 0,0
14.07.2018 11:00:00 22,5 13,8 0 0 4 2 N 28 0,0
14.07.2018 10:00:00 22,6 15,2 0 0 7 4 N 32 0,0
14.07.2018 09:00:00 20,8 15,8 0 0 5 3 N 29 0,0
14.07.2018 08:00:00 18,4 15,1 2 1 5 3 WNW 28 0,0
14.07.2018 07:00:00 16,2 15,2 2 1 3 2 WNW 17 0,0
14.07.2018 06:00:00 12,7 12,7 0 0 3 1 N 0,3 0,0
14.07.2018 05:00:00 11,3 11,3 0 0 3 1 N 0,2 0,0
14.07.2018 04:00:00 10,4 10,4 0 0 3 1 N 0,9 0,0
14.07.2018 03:00:00 11,5 11,5 0 0 3 2 N 0,2 0,0
14.07.2018 02:00:00 11,1 11,1 0 0 4 2 N 0,4 0,0
14.07.2018 01:00:00 12,8 12,8 0 0 4 2 N 0,2 0,0
14.07.2018 00:00:00 12,6 12,4 0 0 3 2 N 0,4 0,0
13.07.2018 23:00:00 13,9 13,7 0 0 5 3 N 3,7 0,0
13.07.2018 22:00:00 14,9 14,7 0 0 4 2 N 9 0,0
13.07.2018 21:00:00 15,5 15,0 0 0 3 2 N 16 0,0
13.07.2018 20:00:00 17,4 15,0 2 1 8 4 E 44 0,0
13.07.2018 19:00:00 17,5 14,8 3 2 6 4 E 44 0,0
13.07.2018 18:00:00 17,3 14,9 0 0 3 2 N 42 0,0
13.07.2018 17:00:00 14,9 14,1 4 2 9 5 ESE 29 0,7
13.07.2018 16:00:00 14,9 13,4 5 3 17 9 E 10 0,4
13.07.2018 15:00:00 18,6 15,1 6 4 18 10 E 41 2,6
13.07.2018 14:00:00 19,6 11,9 13 7 27 15 E 39 0,0
13.07.2018 13:00:00 22,3 12,3 6 4 15 8 SSE 40 0,0
13.07.2018 12:00:00 22,1 12,6 3 2 10 5 SSE 47 0,0
13.07.2018 11:00:00 22,1 12,1 2 1 8 5 NE 41 0,0
13.07.2018 10:00:00 20,5 13,5 0 0 4 2 N 47 0,0
13.07.2018 09:00:00 17,7 13,6 0 0 5 3 N 43 0,1
13.07.2018 08:00:00 15,7 12,3 0 0 10 5 N 37 0,1
13.07.2018 07:00:00 14,1 12,5 3 2 9 5 S 27 0,5
13.07.2018 06:00:00 14,6 11,0 2 1 6 4 ESE 38 0,0
13.07.2018 05:00:00 14,9 10,7 3 1 5 3 ESE 50 0,0
13.07.2018 04:00:00 12,3 11,0 3 1 5 3 ENE 48 0,0
13.07.2018 03:00:00 12,5 11,2 4 2 6 3 E 50 0,0
13.07.2018 02:00:00 13,5 11,2 3 2 5 3 ESE 49 0,0
13.07.2018 01:00:00 13,6 10,6 2 1 5 3 ENE 50 0,0
13.07.2018 00:00:00 16,3 10,4 0 0 8 4 N 47 0,0
12.07.2018 23:00:00 18,3 10,1 4 2 13 7 SSE 36 0,0
12.07.2018 22:00:00 19,9 9,5 6 3 18 10 SSE 39 0,0
12.07.2018 21:00:00 20,5 8,8 5 3 20 11 S 50 0,0
12.07.2018 20:00:00 22,0 9,2 7 4 20 11 S 50 0,0
12.07.2018 19:00:00 22,3 9,5 7 4 18 10 SSE 50 0,0
12.07.2018 18:00:00 22,9 10,0 8 4 19 10 SSE 50 0,0
12.07.2018 17:00:00 22,4 9,9 6 4 13 7 S 50 0,0
12.07.2018 16:00:00 23,3 10,0 5 3 20 11 SSE 47 0,0
12.07.2018 15:00:00 24,2 10,5 6 3 19 11 SSE 43 0,0
12.07.2018 14:00:00 24,2 7,8 7 4 18 10 E 32 0,0
12.07.2018 13:00:00 25,2 8,6 5 3 16 9 ESE 34 0,0
12.07.2018 12:00:00 24,8 9,5 3 2 13 7 WSW 30 0,0
12.07.2018 11:00:00 23,6 8,8 6 4 16 9 ESE 36 0,0
12.07.2018 10:00:00 23,2 6,9 4 2 14 7 SE 41 0,0
12.07.2018 09:00:00 21,8 9,0 4 2 10 6 ESE 43 0,0
12.07.2018 08:00:00 21,3 9,8 4 2 9 5 ESE 36 0,0
12.07.2018 07:00:00 18,9 13,3 0 0 3 2 N 43 0,0
12.07.2018 06:00:00 15,9 12,3 0 0 2 1 N 48 0,0
12.07.2018 05:00:00 11,2 10,9 0 0 1 1 N 32 0,0
12.07.2018 04:00:00 9,3 9,3 0 0 3 2 N 17 0,0
12.07.2018 03:00:00 9,1 8,8 0 0 1 1 N 22 0,0
12.07.2018 02:00:00 9,8 9,2 0 0 1 1 N 47 0,0
12.07.2018 01:00:00 10,9 8,8 0 0 3 2 N 50 0,0
12.07.2018 00:00:00 13,1 9,7 0 0 4 2 N 50 0,0
11.07.2018 23:00:00 15,7 9,4 4 2 10 5 E 33 0,0
11.07.2018 22:00:00 18,8 9,6 4 2 9 5 E 34 0,0
11.07.2018 21:00:00 21,2 7,1 5 3 16 8 E 50 0,0
11.07.2018 20:00:00 22,2 6,8 6 4 16 9 E 50 0,0
11.07.2018 19:00:00 22,8 6,5 10 5 23 12 E 50 0,0
11.07.2018 18:00:00 23,8 7,4 9 5 24 13 E 50 0,0
11.07.2018 17:00:00 24,6 7,3 13 7 24 13 E 43 0,0
11.07.2018 16:00:00 25,5 8,9 7 4 19 10 ESE 32 0,0
11.07.2018 15:00:00 25,3 8,3 8 4 20 11 SE 44 0,0
11.07.2018 14:00:00 25,2 9,5 6 4 17 9 SE 39 0,0
11.07.2018 13:00:00 25,1 7,7 6 3 18 10 ESE 35 0,0

tt = Température de l'air
td = dewpoint
ff = Vitesse du vent
fx = gusts
dd = Direction du vent
vv = visibility
rr = Quantités de précipitations

stations d'obs. à proximité